createdAt,value
2022-12-22T00:02:39.751Z,79.39
2022-12-22T00:05:38.216Z,79.58
2022-12-22T00:08:25.489Z,79.65
2022-12-22T00:11:13.338Z,79.67
2022-12-22T00:14:01.739Z,79.65
2022-12-22T00:16:52.665Z,79.69
2022-12-22T00:19:38.743Z,79.55
2022-12-22T00:22:33.863Z,79.65
2022-12-22T00:25:20.062Z,79.60
2022-12-22T00:28:07.307Z,79.50
2022-12-22T00:30:54.648Z,79.58
2022-12-22T00:33:41.169Z,79.59
2022-12-22T00:36:30.378Z,79.57
2022-12-22T00:39:17.113Z,79.65
2022-12-22T00:42:03.561Z,79.81
2022-12-22T00:44:50.235Z,79.78
2022-12-22T00:47:47.489Z,79.82
2022-12-22T00:50:34.531Z,79.77
2022-12-22T00:53:22.683Z,79.87
2022-12-22T00:56:09.613Z,79.81
2022-12-22T00:58:55.465Z,79.84
2022-12-22T01:01:41.804Z,79.94
2022-12-22T01:04:30.803Z,79.92
2022-12-22T01:07:17.776Z,79.97
2022-12-22T01:10:10.124Z,80.02
2022-12-22T01:12:58.789Z,80.16
2022-12-22T01:15:46.214Z,80.11
2022-12-22T01:18:33.465Z,80.00
2022-12-22T01:21:20.327Z,80.32
2022-12-22T01:24:06.463Z,80.00
2022-12-22T01:26:52.465Z,80.14
2022-12-22T01:29:38.723Z,80.10
2022-12-22T01:32:24.584Z,80.07
2022-12-22T01:35:11.631Z,80.11
2022-12-22T01:37:57.355Z,80.13
2022-12-22T01:40:43.733Z,80.12
2022-12-22T01:43:56.024Z,80.07
2022-12-22T01:47:04.049Z,80.19
2022-12-22T01:50:02.098Z,80.24
2022-12-22T01:52:52.744Z,80.25
2022-12-22T01:55:42.626Z,80.26
2022-12-22T01:58:39.876Z,80.30
2022-12-22T02:01:25.671Z,80.40
2022-12-22T02:04:12.304Z,80.52
2022-12-22T02:07:01.399Z,80.56
2022-12-22T02:10:26.730Z,80.54
2022-12-22T02:13:31.677Z,80.66
2022-12-22T02:16:29.243Z,80.54
2022-12-22T02:19:32.300Z,80.63
2022-12-22T02:22:53.703Z,80.52
2022-12-22T02:25:46.827Z,80.45
2022-12-22T02:28:34.437Z,80.47
2022-12-22T02:31:20.466Z,80.50
2022-12-22T02:34:07.678Z,80.67
2022-12-22T02:37:03.808Z,80.74
2022-12-22T02:39:57.900Z,80.91
2022-12-22T02:42:53.809Z,80.88
2022-12-22T02:45:52.083Z,80.71
2022-12-22T02:48:56.207Z,80.67
2022-12-22T02:51:47.668Z,80.69
2022-12-22T02:54:36.059Z,80.78
2022-12-22T02:57:24.914Z,80.84
2022-12-22T03:00:11.266Z,80.82
2022-12-22T03:02:58.238Z,80.78
2022-12-22T03:05:44.377Z,80.73
2022-12-22T03:08:30.803Z,80.82
2022-12-22T03:11:17.539Z,80.79
2022-12-22T03:14:03.750Z,80.87
2022-12-22T03:16:49.946Z,80.94
2022-12-22T03:19:36.547Z,81.02
2022-12-22T03:22:22.742Z,80.99
2022-12-22T03:25:09.251Z,81.07
2022-12-22T03:27:36.734Z,81.12
2022-12-22T03:30:04.642Z,81.26
2022-12-22T03:32:32.535Z,81.17
2022-12-22T03:34:59.711Z,81.21
2022-12-22T03:37:26.967Z,81.41
2022-12-22T03:39:54.734Z,81.36
2022-12-22T03:42:40.516Z,81.34
2022-12-22T03:45:29.164Z,81.25
2022-12-22T03:47:56.572Z,81.18
2022-12-22T03:50:23.804Z,81.25
2022-12-22T03:52:51.362Z,81.26
2022-12-22T03:55:18.976Z,81.26
2022-12-22T03:57:46.608Z,81.33
2022-12-22T04:00:14.725Z,81.39
2022-12-22T04:02:42.356Z,81.65
2022-12-22T04:05:10.746Z,81.48
2022-12-22T04:07:37.978Z,81.66
2022-12-22T04:10:25.196Z,81.77
2022-12-22T04:12:56.276Z,81.75
2022-12-22T04:15:25.969Z,81.63
2022-12-22T04:17:53.358Z,81.70
2022-12-22T04:20:22.652Z,81.67
2022-12-22T04:22:50.182Z,81.80
2022-12-22T04:25:18.259Z,81.69
2022-12-22T04:27:45.835Z,81.76
2022-12-22T04:30:14.010Z,81.82
2022-12-22T04:32:41.811Z,81.65
2022-12-22T04:35:10.093Z,81.67
2022-12-22T04:37:37.511Z,81.84
2022-12-22T04:40:05.708Z,81.88
2022-12-22T04:42:33.402Z,82.46
2022-12-22T04:45:00.713Z,82.52
2022-12-22T04:47:28.286Z,82.36
2022-12-22T04:49:56.167Z,82.11
2022-12-22T04:52:23.444Z,82.10
2022-12-22T04:54:51.082Z,82.09
2022-12-22T04:57:18.486Z,82.10
2022-12-22T04:59:45.630Z,82.20
2022-12-22T05:02:13.141Z,82.20
2022-12-22T05:04:41.071Z,82.14
2022-12-22T05:07:08.485Z,82.33
2022-12-22T05:09:35.951Z,82.49
2022-12-22T05:12:23.644Z,82.64
2022-12-22T05:14:51.348Z,82.62
2022-12-22T05:17:19.310Z,82.96
2022-12-22T05:19:46.736Z,83.46
2022-12-22T05:22:14.637Z,83.33
2022-12-22T05:24:41.774Z,83.22
2022-12-22T05:27:11.274Z,83.08
2022-12-22T05:29:39.100Z,82.83
2022-12-22T05:32:06.391Z,82.90
2022-12-22T05:34:33.767Z,83.03
2022-12-22T05:37:01.332Z,83.22
2022-12-22T05:39:28.537Z,83.11
2022-12-22T05:41:55.771Z,83.04
2022-12-22T05:44:23.457Z,83.09
2022-12-22T05:46:54.459Z,82.93
2022-12-22T05:49:21.846Z,82.86
2022-12-22T05:51:49.532Z,82.91
2022-12-22T05:54:16.798Z,82.99
2022-12-22T05:56:44.532Z,83.02
2022-12-22T05:59:12.033Z,83.17
2022-12-22T06:01:39.435Z,83.17
2022-12-22T06:04:06.984Z,83.32
2022-12-22T06:06:34.505Z,83.32
2022-12-22T06:09:01.907Z,83.41
2022-12-22T06:11:29.720Z,83.55
2022-12-22T06:13:57.198Z,83.42
2022-12-22T06:16:24.525Z,83.31
2022-12-22T06:18:52.527Z,83.16
2022-12-22T06:21:20.055Z,83.28
2022-12-22T06:23:47.287Z,83.22
2022-12-22T06:26:16.774Z,83.27
2022-12-22T06:28:44.285Z,83.46
2022-12-22T06:31:11.551Z,83.59
2022-12-22T06:33:39.352Z,83.54
2022-12-22T06:36:08.078Z,83.56
2022-12-22T06:38:35.360Z,83.48
2022-12-22T06:41:03.867Z,83.56
2022-12-22T06:43:31.595Z,83.60
2022-12-22T06:45:58.929Z,83.38
2022-12-22T06:48:26.802Z,83.41
2022-12-22T06:50:58.820Z,83.55
2022-12-22T06:53:26.703Z,83.61
2022-12-22T06:55:54.450Z,83.68
2022-12-22T06:58:21.800Z,83.81
2022-12-22T07:00:50.920Z,83.75
2022-12-22T07:03:18.482Z,83.81
2022-12-22T07:05:46.187Z,83.74
2022-12-22T07:08:13.502Z,83.70
2022-12-22T07:10:59.218Z,83.95
2022-12-22T07:13:31.162Z,83.87
2022-12-22T07:16:01.081Z,84.10
2022-12-22T07:18:35.000Z,83.88
2022-12-22T07:21:05.553Z,83.85
2022-12-22T07:23:33.923Z,83.85
2022-12-22T07:26:01.986Z,83.92
2022-12-22T07:28:29.237Z,83.75
2022-12-22T07:30:56.672Z,83.81
2022-12-22T07:33:24.558Z,84.09
2022-12-22T07:36:03.674Z,84.07
2022-12-22T07:38:33.274Z,83.94
2022-12-22T07:41:04.922Z,83.89
2022-12-22T07:43:33.364Z,83.94
2022-12-22T07:46:00.890Z,84.04
2022-12-22T07:48:46.644Z,83.99
2022-12-22T07:51:14.657Z,84.04
2022-12-22T07:53:41.756Z,84.02
2022-12-22T07:56:08.978Z,84.17
2022-12-22T07:58:37.164Z,84.11
2022-12-22T08:01:04.435Z,84.02
2022-12-22T08:03:31.666Z,83.96
2022-12-22T08:05:59.720Z,83.95
2022-12-22T08:08:26.964Z,83.94
2022-12-22T08:10:54.292Z,83.95
2022-12-22T08:13:22.257Z,84.08
2022-12-22T08:15:49.544Z,84.10
2022-12-22T08:18:16.784Z,84.11
2022-12-22T08:20:51.849Z,84.08
2022-12-22T08:23:19.245Z,84.30
2022-12-22T08:25:51.554Z,84.21
2022-12-22T08:28:19.419Z,84.04
2022-12-22T08:30:47.543Z,84.08
2022-12-22T08:33:15.343Z,84.14
2022-12-22T08:35:43.748Z,84.34
2022-12-22T08:38:13.411Z,84.34
2022-12-22T08:40:44.382Z,84.43
2022-12-22T08:43:12.308Z,84.34
2022-12-22T08:45:42.058Z,84.30
2022-12-22T08:48:10.127Z,84.35
2022-12-22T08:50:37.922Z,84.33
2022-12-22T08:53:18.530Z,84.25
2022-12-22T08:56:00.841Z,84.25
2022-12-22T08:58:33.810Z,84.35
2022-12-22T09:01:02.921Z,84.38
2022-12-22T09:03:30.589Z,84.36
2022-12-22T09:06:01.771Z,84.33
2022-12-22T09:08:29.574Z,84.50
2022-12-22T09:10:56.881Z,84.41
2022-12-22T09:13:29.218Z,84.34
2022-12-22T09:16:04.022Z,84.33
2022-12-22T09:18:34.670Z,84.34
2022-12-22T09:21:02.214Z,84.47
2022-12-22T09:23:32.689Z,84.36
2022-12-22T09:26:00.036Z,84.48
2022-12-22T09:28:27.562Z,84.42
2022-12-22T09:30:57.548Z,84.34
2022-12-22T09:33:25.918Z,84.29
2022-12-22T09:35:53.305Z,84.23
2022-12-22T09:38:20.674Z,84.33
2022-12-22T09:40:48.834Z,84.29
2022-12-22T09:43:22.135Z,84.27
2022-12-22T09:45:50.328Z,84.19
2022-12-22T09:48:17.771Z,84.24
2022-12-22T09:50:45.486Z,83.87
2022-12-22T09:53:27.770Z,83.92
2022-12-22T09:55:58.095Z,83.94
2022-12-22T09:58:35.671Z,83.90
2022-12-22T10:01:29.219Z,83.93
2022-12-22T10:04:32.346Z,83.86
2022-12-22T10:07:21.458Z,83.90
2022-12-22T10:09:51.967Z,83.86
2022-12-22T10:12:23.945Z,83.92
2022-12-22T10:14:53.359Z,83.99
2022-12-22T10:17:28.980Z,83.90
2022-12-22T10:20:21.919Z,83.80
2022-12-22T10:22:58.805Z,83.65
2022-12-22T10:28:44.044Z,83.72
2022-12-22T10:31:16.148Z,83.73
2022-12-22T10:33:47.568Z,83.51
2022-12-22T10:36:21.942Z,83.52
2022-12-22T10:39:12.116Z,83.19
2022-12-22T10:41:47.302Z,83.22
2022-12-22T10:44:18.643Z,83.25
2022-12-22T10:46:49.355Z,83.31
2022-12-22T10:49:23.465Z,83.26
2022-12-22T10:51:56.833Z,83.39
2022-12-22T10:54:26.270Z,83.35
2022-12-22T10:57:19.963Z,83.21
2022-12-22T10:59:50.297Z,83.17
2022-12-22T11:02:20.680Z,83.13
2022-12-22T11:04:50.095Z,82.78
2022-12-22T11:07:18.220Z,82.78
2022-12-22T11:09:45.684Z,82.87
2022-12-22T11:12:18.433Z,82.91
2022-12-22T11:14:55.333Z,83.02
2022-12-22T11:17:36.225Z,83.11
2022-12-22T11:20:25.702Z,83.18
2022-12-22T11:23:15.173Z,83.11
2022-12-22T11:26:20.497Z,83.00
2022-12-22T11:29:19.961Z,82.83
2022-12-22T11:32:09.202Z,82.93
2022-12-22T11:34:42.903Z,82.73
2022-12-22T11:37:36.792Z,82.80
2022-12-22T11:40:28.368Z,82.81
2022-12-22T11:43:11.121Z,82.91
2022-12-22T11:45:54.271Z,82.95
2022-12-22T11:48:39.221Z,83.02
2022-12-22T11:51:27.570Z,82.87
2022-12-22T11:54:18.711Z,82.71
2022-12-22T11:57:12.390Z,82.68
2022-12-22T12:00:02.766Z,82.61
2022-12-22T12:02:57.532Z,82.68
2022-12-22T12:05:59.619Z,82.57
2022-12-22T12:08:56.172Z,82.51
2022-12-22T12:11:42.469Z,82.58
2022-12-22T12:14:55.058Z,82.57
2022-12-22T12:17:25.166Z,82.47
2022-12-22T12:20:31.307Z,82.30
2022-12-22T12:23:13.539Z,82.11
2022-12-22T12:25:44.381Z,82.10
2022-12-22T12:28:11.480Z,82.00
2022-12-22T12:31:00.278Z,81.97
2022-12-22T12:33:42.157Z,81.90
2022-12-22T12:36:18.713Z,81.87
2022-12-22T12:39:13.268Z,81.52
2022-12-22T12:41:57.400Z,81.18
2022-12-22T12:44:32.933Z,81.32
2022-12-22T12:47:07.915Z,81.02
2022-12-22T12:49:35.639Z,81.16
2022-12-22T12:52:09.367Z,81.17
2022-12-22T12:54:47.621Z,80.83
2022-12-22T12:57:46.217Z,80.81
2022-12-22T13:00:32.375Z,80.84
2022-12-22T13:03:02.628Z,80.92
2022-12-22T13:06:03.481Z,80.90
2022-12-22T13:08:32.770Z,80.95
2022-12-22T13:11:00.280Z,80.77
2022-12-22T13:13:27.460Z,80.64
2022-12-22T13:16:07.034Z,80.67
2022-12-22T13:18:49.456Z,80.53
2022-12-22T13:21:54.250Z,80.59
2022-12-22T13:24:30.196Z,80.47
2022-12-22T13:27:04.561Z,80.35
2022-12-22T13:29:46.142Z,80.16
2022-12-22T13:32:34.526Z,80.07
2022-12-22T13:35:31.661Z,80.15
2022-12-22T13:38:01.009Z,80.07
2022-12-22T13:40:40.138Z,79.90
2022-12-22T13:43:13.946Z,79.92
2022-12-22T13:45:47.449Z,80.06
2022-12-22T13:48:21.647Z,79.89
2022-12-22T13:50:55.259Z,79.80
2022-12-22T13:56:23.560Z,79.69
2022-12-22T13:58:57.776Z,79.72
2022-12-22T14:01:26.315Z,79.84
2022-12-22T14:04:03.932Z,79.93
2022-12-22T14:06:36.331Z,79.90
2022-12-22T14:09:21.452Z,79.60
2022-12-22T14:11:53.245Z,79.73
2022-12-22T14:14:25.188Z,79.75
2022-12-22T14:16:57.007Z,79.75
2022-12-22T14:19:25.355Z,79.86
2022-12-22T14:22:05.907Z,79.74
2022-12-22T14:24:41.699Z,79.80
2022-12-22T14:27:21.314Z,79.80
2022-12-22T14:29:49.751Z,79.98
2022-12-22T14:32:37.668Z,79.83
2022-12-22T14:35:20.777Z,79.73
2022-12-22T14:38:10.649Z,79.83
2022-12-22T14:40:43.329Z,79.72
2022-12-22T14:43:26.766Z,79.63
2022-12-22T14:46:04.409Z,79.66
2022-12-22T14:48:46.762Z,79.67
2022-12-22T14:51:19.516Z,79.78
2022-12-22T14:53:51.945Z,79.82
2022-12-22T14:56:22.487Z,79.99
2022-12-22T14:58:50.570Z,80.00
2022-12-22T15:01:17.969Z,80.04
2022-12-22T15:03:59.221Z,80.02
2022-12-22T15:06:26.888Z,80.00
2022-12-22T15:09:06.864Z,79.97
2022-12-22T15:11:37.871Z,79.96
2022-12-22T15:14:15.358Z,80.09
2022-12-22T15:16:44.016Z,80.06
2022-12-22T15:19:17.124Z,80.08
2022-12-22T15:21:44.389Z,79.84
2022-12-22T15:24:15.123Z,80.12
2022-12-22T15:26:43.341Z,79.98
2022-12-22T15:29:10.685Z,80.10
2022-12-22T15:31:40.435Z,80.09
2022-12-22T15:34:31.595Z,80.11
2022-12-22T15:36:59.126Z,80.24
2022-12-22T15:39:26.849Z,80.13
2022-12-22T15:41:54.382Z,80.12
2022-12-22T15:44:22.393Z,80.08
2022-12-22T15:46:56.236Z,80.12
2022-12-22T15:49:26.763Z,80.23
2022-12-22T15:52:01.440Z,80.31
2022-12-22T15:54:32.583Z,80.39
2022-12-22T15:57:01.139Z,80.25
2022-12-22T15:59:29.325Z,80.39
2022-12-22T16:02:01.322Z,80.42
2022-12-22T16:04:31.245Z,80.22
2022-12-22T16:06:59.422Z,80.33
2022-12-22T16:09:39.600Z,80.37
2022-12-22T16:12:13.560Z,80.36
2022-12-22T16:14:49.752Z,80.51
2022-12-22T16:17:20.361Z,80.37
2022-12-22T16:19:52.060Z,80.31
2022-12-22T16:22:33.443Z,80.38
2022-12-22T16:25:02.303Z,80.39
2022-12-22T16:27:31.285Z,80.37
2022-12-22T16:29:58.851Z,80.29
2022-12-22T16:32:29.510Z,80.53
2022-12-22T16:35:09.238Z,80.54
2022-12-22T16:37:37.592Z,80.57
2022-12-22T16:40:06.216Z,80.45
2022-12-22T16:45:22.749Z,80.61
2022-12-22T16:47:53.262Z,80.58
2022-12-22T16:50:23.196Z,80.63
2022-12-22T16:52:50.837Z,80.56
2022-12-22T16:55:20.532Z,80.71
2022-12-22T16:57:48.236Z,80.73
2022-12-22T17:00:20.572Z,80.64
2022-12-22T17:03:04.069Z,80.69
2022-12-22T17:05:44.765Z,80.75
2022-12-22T17:08:38.909Z,80.83
2022-12-22T17:11:16.661Z,80.84
2022-12-22T17:13:43.969Z,80.77
2022-12-22T17:16:19.309Z,80.78
2022-12-22T17:18:47.167Z,80.79
2022-12-22T17:21:18.576Z,80.70
2022-12-22T17:23:51.570Z,80.87
2022-12-22T17:26:25.721Z,80.87
2022-12-22T17:28:53.470Z,81.02
2022-12-22T17:31:23.390Z,81.07
2022-12-22T17:33:50.953Z,81.17
2022-12-22T17:36:33.043Z,81.28
2022-12-22T17:39:02.767Z,81.24
2022-12-22T17:41:30.379Z,80.98
2022-12-22T17:43:58.081Z,81.25
2022-12-22T17:46:27.528Z,81.12
2022-12-22T17:48:54.798Z,81.20
2022-12-22T17:51:28.232Z,81.22
2022-12-22T17:53:58.285Z,81.26
2022-12-22T17:56:29.255Z,81.24
2022-12-22T17:58:57.065Z,81.08
2022-12-22T18:01:36.967Z,81.23
2022-12-22T18:04:13.660Z,81.21
2022-12-22T18:06:55.410Z,81.22
2022-12-22T18:09:37.519Z,81.23
2022-12-22T18:12:28.056Z,81.37
2022-12-22T18:15:24.445Z,81.35
2022-12-22T18:18:02.903Z,81.38
2022-12-22T18:20:45.255Z,81.62
2022-12-22T18:23:43.127Z,81.45
2022-12-22T18:26:32.722Z,81.47
2022-12-22T18:29:23.966Z,81.44
2022-12-22T18:32:04.719Z,81.50
2022-12-22T18:34:44.485Z,81.46
2022-12-22T18:37:22.960Z,81.44
2022-12-22T18:40:08.090Z,81.46
2022-12-22T18:42:47.509Z,81.49
2022-12-22T18:45:28.763Z,81.67
2022-12-22T18:48:10.471Z,81.54
2022-12-22T18:50:49.428Z,81.60
2022-12-22T18:53:34.015Z,81.58
2022-12-22T18:56:17.151Z,81.60
2022-12-22T18:58:56.801Z,81.56
2022-12-22T19:01:37.062Z,81.57
2022-12-22T19:04:15.829Z,81.73
2022-12-22T19:06:54.691Z,81.72
2022-12-22T19:09:34.986Z,81.79
2022-12-22T19:12:32.362Z,81.86
2022-12-22T19:15:22.479Z,81.87
2022-12-22T19:18:04.527Z,82.07
2022-12-22T19:20:41.895Z,81.97
2022-12-22T19:23:23.341Z,82.04
2022-12-22T19:26:09.331Z,82.03
2022-12-22T19:28:49.501Z,81.87
2022-12-22T19:31:35.198Z,81.91
2022-12-22T19:34:22.216Z,81.70
2022-12-22T19:37:00.692Z,81.81
2022-12-22T19:39:39.816Z,82.05
2022-12-22T19:42:26.309Z,82.13
2022-12-22T19:45:10.739Z,82.24
2022-12-22T19:47:58.190Z,82.25
2022-12-22T19:50:37.134Z,82.22
2022-12-22T19:53:18.489Z,82.26
2022-12-22T19:56:00.526Z,82.31
2022-12-22T19:58:44.743Z,82.26
2022-12-22T20:01:19.318Z,82.17
2022-12-22T20:04:00.176Z,82.32
2022-12-22T20:06:39.263Z,82.38
2022-12-22T20:09:21.182Z,82.37
2022-12-22T20:12:00.706Z,82.38
2022-12-22T20:14:41.369Z,82.53
2022-12-22T20:17:18.230Z,82.67
2022-12-22T20:19:55.900Z,82.83
2022-12-22T20:22:34.810Z,82.80
2022-12-22T20:25:18.313Z,82.84
2022-12-22T20:27:56.496Z,83.04
2022-12-22T20:30:36.457Z,83.00
2022-12-22T20:33:15.865Z,82.86
2022-12-22T20:35:59.726Z,83.03
2022-12-22T20:38:46.021Z,83.00
2022-12-22T20:41:26.419Z,83.19
2022-12-22T20:44:06.012Z,82.98
2022-12-22T20:46:46.804Z,82.99
2022-12-22T20:49:26.297Z,83.26
2022-12-22T20:52:05.525Z,83.31
2022-12-22T20:54:52.667Z,83.45
2022-12-22T20:57:34.331Z,83.36
2022-12-22T21:00:07.263Z,83.44
2022-12-22T21:02:43.611Z,83.34
2022-12-22T21:05:27.278Z,83.18
2022-12-22T21:08:06.666Z,83.24
2022-12-22T21:10:51.082Z,83.11
2022-12-22T21:13:34.271Z,83.10
2022-12-22T21:16:29.463Z,83.07
2022-12-22T21:19:10.212Z,83.08
2022-12-22T21:21:49.666Z,83.14
2022-12-22T21:24:30.161Z,83.28
2022-12-22T21:27:08.971Z,83.18
2022-12-22T21:29:49.117Z,83.09
2022-12-22T21:32:30.249Z,83.06
2022-12-22T21:35:09.642Z,83.12
2022-12-22T21:37:55.542Z,83.18
2022-12-22T21:40:34.575Z,83.11
2022-12-22T21:43:19.776Z,82.96
2022-12-22T21:46:01.666Z,82.95
2022-12-22T21:48:46.627Z,83.13
2022-12-22T21:51:27.565Z,83.14
2022-12-22T21:54:06.203Z,83.34
2022-12-22T21:56:46.359Z,83.57
2022-12-22T21:59:26.245Z,83.69
2022-12-22T22:02:18.404Z,83.60
2022-12-22T22:04:57.084Z,83.51
2022-12-22T22:07:36.357Z,83.64
2022-12-22T22:10:15.935Z,83.58
2022-12-22T22:12:55.524Z,83.29
2022-12-22T22:15:35.918Z,83.33
2022-12-22T22:18:23.139Z,83.50
2022-12-22T22:21:06.727Z,83.62
2022-12-22T22:23:47.740Z,83.55
2022-12-22T22:26:33.165Z,83.47
2022-12-22T22:29:14.107Z,83.45
2022-12-22T22:31:54.671Z,83.27
2022-12-22T22:34:32.079Z,82.96
2022-12-22T22:37:11.863Z,82.75
2022-12-22T22:39:53.522Z,82.94
2022-12-22T22:42:25.923Z,83.14
2022-12-22T22:44:58.081Z,83.21
2022-12-22T22:47:38.664Z,83.43
2022-12-22T22:50:21.558Z,83.53
2022-12-22T22:53:04.990Z,83.57
2022-12-22T22:55:44.846Z,83.40
2022-12-22T22:58:36.173Z,83.61
2022-12-22T23:01:16.592Z,83.50
2022-12-22T23:03:55.937Z,83.46
2022-12-22T23:06:34.619Z,83.46
2022-12-22T23:09:14.495Z,83.35
2022-12-22T23:11:59.348Z,83.26
2022-12-22T23:14:37.919Z,83.27
2022-12-22T23:17:18.782Z,83.40
2022-12-22T23:19:57.382Z,83.44
2022-12-22T23:22:39.426Z,83.36
2022-12-22T23:25:22.116Z,83.26
2022-12-22T23:28:03.844Z,83.28
2022-12-22T23:30:51.825Z,83.44
2022-12-22T23:33:33.011Z,83.40
2022-12-22T23:36:14.638Z,83.46
2022-12-22T23:38:58.289Z,83.36
2022-12-22T23:41:40.425Z,83.40
2022-12-22T23:44:20.873Z,83.08
2022-12-22T23:46:59.932Z,83.29
2022-12-22T23:49:38.858Z,83.38
2022-12-22T23:52:17.127Z,83.48
2022-12-22T23:54:58.814Z,83.55
2022-12-22T23:57:41.116Z,83.48
